Wetterstation Vordersexau
Wetterdaten: Woche 16.10.23 - 22.10.23 (KW42)
Datum Zeit Temp. A. Feuchte A. Luftdruck Regen Wind Richtung Taupunkt Windchill Windben
16.10.2023 00:00 4,4 C 91 % 1019,0 hPa 0,0 l/m 0,0 km/h (0 Bft) N 3,1 C 4,4 C 0,0 km/h (0 Bft)
16.10.2023 01:00 3,8 C 91 % 1018,7 hPa 0,0 l/m 0,0 km/h (0 Bft) N 2,5 C 3,8 C 0,0 km/h (0 Bft)
16.10.2023 02:00 3,7 C 89 % 1018,0 hPa 0,0 l/m 0,0 km/h (0 Bft) SO 2,1 C 3,7 C 2,5 km/h (1 Bft)
16.10.2023 03:00 3,6 C 89 % 1017,7 hPa 0,0 l/m 1,1 km/h (1 Bft) N 2,0 C 3,6 C 6,1 km/h (2 Bft)
16.10.2023 04:00 3,4 C 88 % 1017,2 hPa 0,0 l/m 0,0 km/h (0 Bft) N 1,6 C 3,4 C 2,5 km/h (1 Bft)
16.10.2023 05:00 2,5 C 93 % 1016,6 hPa 0,0 l/m 0,0 km/h (0 Bft) N 1,5 C 2,5 C 0,0 km/h (0 Bft)
16.10.2023 06:00 1,6 C 95 % 1016,4 hPa 0,0 l/m 0,0 km/h (0 Bft) N 0,9 C 1,6 C 2,5 km/h (1 Bft)
16.10.2023 07:00 0,6 C 96 % 1016,1 hPa 0,0 l/m 0,0 km/h (0 Bft) N 0,0 C 0,6 C 0,0 km/h (0 Bft)
16.10.2023 08:00 0,3 C 98 % 1015,9 hPa 0,0 l/m 0,0 km/h (0 Bft) N 0,0 C 0,3 C 0,0 km/h (0 Bft)
16.10.2023 09:00 0,6 C 98 % 1015,9 hPa 0,0 l/m 0,0 km/h (0 Bft) N 0,3 C 0,6 C 0,0 km/h (0 Bft)
16.10.2023 10:00 2,6 C 98 % 1016,1 hPa 0,0 l/m 0,0 km/h (0 Bft) W 2,3 C 2,6 C 2,5 km/h (1 Bft)
16.10.2023 11:00 6,1 C 86 % 1016,1 hPa 0,0 l/m 2,5 km/h (1 Bft) N 3,9 C 6,1 C 6,1 km/h (2 Bft)
16.10.2023 12:00 9,1 C 76 % 1015,7 hPa 0,0 l/m 2,5 km/h (1 Bft) W 5,1 C 9,1 C 7,2 km/h (2 Bft)
16.10.2023 13:00 12,0 C 64 % 1015,2 hPa 0,0 l/m 2,5 km/h (1 Bft) NW 5,4 C 12,0 C 3,6 km/h (1 Bft)
16.10.2023 14:00 14,2 C 54 % 1014,1 hPa 0,0 l/m 3,6 km/h (1 Bft) W 5,0 C 14,2 C 7,2 km/h (2 Bft)
16.10.2023 15:00 16,0 C 50 % 1013,1 hPa 0,0 l/m 5,0 km/h (1 Bft) NW 5,6 C 16,0 C 7,2 km/h (2 Bft)
16.10.2023 16:00 16,4 C 45 % 1012,2 hPa 0,0 l/m 2,5 km/h (1 Bft) W 4,4 C 16,4 C 3,6 km/h (1 Bft)
16.10.2023 17:00 16,3 C 50 % 1011,8 hPa 0,0 l/m 3,6 km/h (1 Bft) W-SW 5,9 C 16,3 C 6,1 km/h (2 Bft)
16.10.2023 18:00 15,2 C 54 % 1011,6 hPa 0,0 l/m 2,5 km/h (1 Bft) N 6,0 C 15,2 C 3,6 km/h (1 Bft)
16.10.2023 19:00 11,0 C 71 % 1012,1 hPa 0,0 l/m 0,0 km/h (0 Bft) N 5,9 C 11,0 C 2,5 km/h (1 Bft)
16.10.2023 20:00 8,4 C 79 % 1012,6 hPa 0,0 l/m 0,0 km/h (0 Bft) S-SO 5,0 C 8,4 C 2,5 km/h (1 Bft)
16.10.2023 21:00 7,9 C 79 % 1013,2 hPa 0,0 l/m 1,1 km/h (1 Bft) N 4,5 C 7,9 C 2,5 km/h (1 Bft)
16.10.2023 22:00 6,3 C 83 % 1012,8 hPa 0,0 l/m 0,0 km/h (0 Bft) N 3,6 C 6,3 C 2,5 km/h (1 Bft)
16.10.2023 23:00 6,0 C 85 % 1013,1 hPa 0,0 l/m 0,0 km/h (0 Bft) S-SO 3,7 C 6,0 C 0,0 km/h (0 Bft)
17.10.2023 00:00 4,8 C 86 % 1013,0 hPa 0,0 l/m 3,6 km/h (1 Bft) SO 2,7 C 4,8 C 3,6 km/h (1 Bft)
17.10.2023 01:00 5,2 C 85 % 1012,9 hPa 0,0 l/m 1,1 km/h (1 Bft) N 2,9 C 5,2 C 3,6 km/h (1 Bft)
17.10.2023 02:00 4,7 C 86 % 1012,6 hPa 0,0 l/m 0,0 km/h (0 Bft) N 2,6 C 4,7 C 0,0 km/h (0 Bft)
17.10.2023 03:00 3,4 C 92 % 1012,4 hPa 0,0 l/m 0,0 km/h (0 Bft) N 2,2 C 3,4 C 0,0 km/h (0 Bft)
17.10.2023 04:00 3,5 C 93 % 1012,0 hPa 0,0 l/m 0,0 km/h (0 Bft) N 2,5 C 3,5 C 2,5 km/h (1 Bft)
17.10.2023 05:00 3,2 C 92 % 1011,9 hPa 0,0 l/m 0,0 km/h (0 Bft) N 2,0 C 3,2 C 0,0 km/h (0 Bft)
17.10.2023 06:00 3,1 C 93 % 1012,0 hPa 0,0 l/m 0,0 km/h (0 Bft) SO 2,1 C 3,1 C 2,5 km/h (1 Bft)
17.10.2023 07:00 3,4 C 94 % 1011,5 hPa 0,0 l/m 1,1 km/h (1 Bft) N 2,5 C 3,4 C 2,5 km/h (1 Bft)
17.10.2023 08:00 2,5 C 94 % 1011,8 hPa 0,0 l/m 0,0 km/h (0 Bft) N 1,6 C 2,5 C 0,0 km/h (0 Bft)
17.10.2023 09:00 1,3 C 96 % 1012,0 hPa 0,0 l/m 0,0 km/h (0 Bft) SO 0,7 C 1,3 C 0,0 km/h (0 Bft)
17.10.2023 10:00 5,4 C 88 % 1012,2 hPa 0,0 l/m 1,1 km/h (1 Bft) N 3,6 C 5,4 C 2,5 km/h (1 Bft)
Min-Datum _ 16.10.23 16.10.23 17.10.23 - 16.10.23 - 16.10.23 16.10.23 16.10.23
_ Min-Zeit 08:21 16:21 07:21 - 00:21 - 08:21 08:21 00:21
Minimum _ 0,3 C 45 % 1011,5 hPa - 0,0 km/h (0 Bft) - 0,0 C 0,3 C 0,0 km/h (0 Bft)
Max-Datum _ 16.10.23 16.10.23 16.10.23 16.10.23 16.10.23 - 16.10.23 16.10.23 16.10.23
_ Max-Zeit 16:21 08:21 00:21 00:21 15:21 - 18:21 16:21 12:21
Maximum _ 16,4 C 98 % 1019,0 hPa 0,0 l/m 5,0 km/h
NW (1 Bft)
- 6,0 C 16,4 C 7,2 km/h
W (2 Bft)
Durchschnitt _ 6,1 C 83 % 1014,2 hPa #0,0 l/m 1,0 km/h (0 Bft) SO 3,0 C 6,1 C 2,5 km/h (1 Bft)
www.sexauwetter.de